Disclaimer

Please do not use the information listed here in-flight or in-navigation, as they are not provided to us by the airports but are provided by volunteers, so they might be outdated.

Search


Regions


Airport information page

No radio frequency information is available.

Airport informations:
Latitude: 10° 45' 55.31" N
Longitude: 078° 42' 35.00" E
Elevation: 288 feet - 88 meters
Operating hours: N/A
Operating agency: Civil government, landing fees and diplomatic clearance may be required
Timezone: UTC+5:30
Fuel: Jet A1, without icing nhibitor.

Runway information:
09/27 - 6115 x 150 feet< - >1864 x 46 meters
15/33 - 4776 x 150 feet< - >1456 x 46 meters

Recent METARs:
VOTR 151130Z 02008KT 6000 SCT016 SCT100 32/21 Q1006 NOSIG
VOTR 151200Z 02008KT 6000 SCT016 BKN100 32/21 Q1006 NOSIG
VOTR 151230Z 02008KT 6000 SCT016 BKN100 31/21 Q1006 BECMG 5000 HZ

Airport on the map: